Glass, Virginia
Current Conditions -  °F | °C
As of 2:54 PM on Friday 31 Oct 2014 (Local Time) from KPHF Reporting Station
Broken Clouds Broken Clouds  
Wind Chill: 61°   Ceiling: 5000
Heat Index: 61°   Visibility: 10mi
Dew Point: 41°   Wind: 12mph
Humidity: 48%   Direction: 60°ENE
Pressure: 29.84"   Gusts: NA
Location:  37.3028°N, 76.4825°W
Report Text: KPHF 311854Z AUTO 06010KT 10SM BKN050 16/05 A2984 RMK AO2 SLP104 T01610050 TSNO
Loading
Personal Weather Stations






























Interactive Weather Map
Tropical Storm Tracking
New forecast layout! Learn more

10-Day Weather Forecast

Advertisements
Track Severe Weather on mobile